Portada
METAR-TAF:

METAR-TAF

Aeroports :

Bíldudalur, Islàndia

latitud: 65-38-30N, longitud: 23-32-45W, altitud: 8 m

Observació

L'informe es va fer fa 2 hores i 32 minuts, a les 16:00 UTC
Vent 4 kt del Sud/Sud-Est
Temperatura 15°C
Humitat 59%
Pressió 1009 hPa
Visibilitat 10 km o més
sense núvols per sota de 1500 mi sense presència de cumulonimbus.

METAR: BIBD 051600Z 15004KT CAVOK 15/07 Q1009

Hora: 18:32 (18:32 UTC)

Pronòstic

L'informe es va fer fa 5 hores i 3 minuts, a les 13:29 UTC
Pronòstic vàlid del 05 a les 14 UTC al 05 a les 23 UTC
Vent 5 kt del Sud
Visibilitat 10 km o més
sense núvols per sota de 1500 mi sense presència de cumulonimbus.
Evolucionant progressivament
l' 05 a les 21 UTC al 05 a les 23 UTC
Vent 2 kt amb direcció variable

TAF: BIBD 051329Z 0514/0523 17005KT CAVOK BECMG 0521/0523 VRB02KT

Observacions i pronòstics meteorològics de més de 4000 aeroports (METAR i TAF).

Les estacions disponibles són els punts grocs i vermells al mapa.

Posi el ratolí al punt desitjat per veure el nom de l'estació.

Feu clic per veure les observacions i els pronòstics meteorològics.

Per canviar el mapa: feu clic els botons verds amb una creu de color negre per apropar; al botó verd amb un guió per allunyar la imatge; o en les fletxes verdes per a mapes adjacents.


METAR-TAF: